Fredericia, Denmark
Current Conditions -  °F | °C
As of 12:50 PM on Wednesday 28 Jan 2015 (Local Time) from EKBI Reporting Station
Haze Haze  
Wind Chill: 29°   Ceiling: 1000
Heat Index: 39°   Visibility: 2.6mi
Dew Point: 37°   Wind: 22mph
Humidity: 93%   Direction: 190°S
Pressure: 29.32"   Gusts: 35mph
Location:  55.57°N, 9.75°E
Report Text: EKBI 281150Z AUTO 19019G30KT 4300NDV BR BKN010/// 04/03 Q0993
Loading
Personal Weather Stations






























Interactive Weather Map New forecast layout! Learn more

10-Day Weather Forecast

Advertisements
Track Severe Weather on mobile